createdAt,value
2019-05-18T00:02:20.723Z,92.20
2019-05-18T00:04:48.596Z,91.90
2019-05-18T00:07:16.560Z,92.00
2019-05-18T00:09:44.432Z,92.00
2019-05-18T00:12:12.461Z,92.40
2019-05-18T00:14:40.419Z,92.40
2019-05-18T00:17:23.195Z,91.90
2019-05-18T00:19:38.204Z,92.50
2019-05-18T00:22:06.078Z,92.80
2019-05-18T00:24:33.999Z,93.10
2019-05-18T00:27:02.027Z,93.20
2019-05-18T00:29:30.005Z,93.70
2019-05-18T00:31:57.963Z,93.80
2019-05-18T00:34:25.916Z,93.90
2019-05-18T00:36:53.797Z,94.00
2019-05-18T00:39:21.731Z,94.10
2019-05-18T00:41:49.675Z,94.30
2019-05-18T00:44:17.672Z,94.20
2019-05-18T00:46:45.622Z,94.30
2019-05-18T00:49:14.153Z,94.50
2019-05-18T00:51:42.475Z,94.70
2019-05-18T00:54:10.438Z,95.10
2019-05-18T00:56:38.335Z,94.80
2019-05-18T00:59:06.367Z,95.10
2019-05-18T01:01:34.418Z,95.00
2019-05-18T01:04:02.485Z,94.90
2019-05-18T01:06:30.357Z,94.90
2019-05-18T01:09:11.998Z,95.00
2019-05-18T01:11:39.861Z,95.30
2019-05-18T01:14:07.849Z,95.60
2019-05-18T01:16:41.442Z,95.70
2019-05-18T01:19:09.360Z,95.80
2019-05-18T01:21:37.273Z,95.90
2019-05-18T01:24:06.198Z,95.70
2019-05-18T01:26:34.120Z,95.40
2019-05-18T01:29:04.420Z,95.30
2019-05-18T01:31:32.527Z,95.10
2019-05-18T01:34:00.495Z,95.20
2019-05-18T01:36:28.384Z,95.40
2019-05-18T01:38:56.264Z,95.80
2019-05-18T01:41:24.116Z,95.70
2019-05-18T01:43:51.997Z,96.10
2019-05-18T01:46:19.882Z,96.10
2019-05-18T01:48:47.760Z,96.20
2019-05-18T01:51:15.668Z,96.30
2019-05-18T01:53:43.584Z,96.40
2019-05-18T01:56:11.498Z,96.90
2019-05-18T01:58:39.377Z,97.10
2019-05-18T02:01:07.224Z,97.00
2019-05-18T02:03:35.119Z,97.00
2019-05-18T02:06:03.001Z,96.70
2019-05-18T02:08:30.900Z,96.70
2019-05-18T02:10:58.818Z,96.60
2019-05-18T02:13:29.220Z,96.50
2019-05-18T02:16:00.324Z,96.30
2019-05-18T02:18:29.390Z,96.20
2019-05-18T02:20:57.940Z,95.60
2019-05-18T02:23:27.002Z,95.30
2019-05-18T02:25:54.932Z,95.40
2019-05-18T02:28:22.795Z,95.20
2019-05-18T02:30:50.669Z,95.60
2019-05-18T02:33:18.548Z,96.00
2019-05-18T02:35:46.394Z,96.10
2019-05-18T02:38:15.279Z,96.60
2019-05-18T02:40:43.978Z,96.60
2019-05-18T02:43:11.834Z,96.70
2019-05-18T02:45:40.024Z,96.80
2019-05-18T02:48:07.812Z,97.00
2019-05-18T02:50:35.710Z,97.00
2019-05-18T02:53:03.927Z,96.80
2019-05-18T02:55:31.969Z,96.50
2019-05-18T02:57:59.783Z,97.10
2019-05-18T03:00:27.635Z,96.80
2019-05-18T03:02:55.513Z,96.70
2019-05-18T03:05:23.889Z,96.80
2019-05-18T03:07:51.743Z,97.10
2019-05-18T03:10:19.799Z,97.00
2019-05-18T03:12:47.894Z,97.70
2019-05-18T03:15:16.163Z,97.60
2019-05-18T03:17:44.017Z,97.60
2019-05-18T03:20:12.084Z,97.80
2019-05-18T03:22:39.960Z,98.00
2019-05-18T03:25:08.161Z,98.40
2019-05-18T03:27:36.178Z,98.80
2019-05-18T03:30:04.200Z,99.10
2019-05-18T03:32:32.094Z,99.30
2019-05-18T03:34:59.946Z,99.30
2019-05-18T03:37:27.838Z,99.20
2019-05-18T03:39:55.838Z,99.10
2019-05-18T03:42:23.703Z,99.00
2019-05-18T03:44:51.649Z,98.70
2019-05-18T03:47:19.586Z,98.70
2019-05-18T03:49:47.485Z,98.60
2019-05-18T03:52:15.390Z,98.20
2019-05-18T03:54:43.278Z,98.20
2019-05-18T03:57:11.123Z,98.20
2019-05-18T03:59:39.008Z,98.10
2019-05-18T04:02:06.867Z,98.20
2019-05-18T04:04:34.731Z,97.50
2019-05-18T04:07:02.552Z,97.50
2019-05-18T04:09:30.456Z,98.00
2019-05-18T04:11:58.345Z,97.50
2019-05-18T04:14:26.218Z,97.40
2019-05-18T04:16:56.502Z,97.10
2019-05-18T04:19:42.649Z,97.40
2019-05-18T04:22:14.442Z,97.20
2019-05-18T04:24:42.326Z,97.30
2019-05-18T04:27:10.271Z,97.10
2019-05-18T04:29:39.623Z,97.40
2019-05-18T04:32:07.763Z,97.60
2019-05-18T04:34:35.636Z,97.10
2019-05-18T04:37:03.477Z,97.30
2019-05-18T04:39:31.442Z,97.50
2019-05-18T04:41:59.392Z,97.00
2019-05-18T04:44:27.249Z,97.00
2019-05-18T04:46:55.140Z,96.90
2019-05-18T04:49:22.992Z,96.70
2019-05-18T04:51:50.857Z,96.40
2019-05-18T04:54:18.778Z,96.50
2019-05-18T04:56:46.776Z,96.50
2019-05-18T04:59:14.665Z,96.30
2019-05-18T05:01:42.710Z,96.00
2019-05-18T05:04:10.625Z,95.70
2019-05-18T05:06:38.573Z,95.00
2019-05-18T05:09:07.352Z,95.10
2019-05-18T05:11:35.354Z,94.90
2019-05-18T05:14:03.927Z,94.90
2019-05-18T05:16:31.891Z,94.50
2019-05-18T05:18:59.853Z,94.40
2019-05-18T05:21:27.784Z,93.50
2019-05-18T05:23:55.628Z,93.60
2019-05-18T05:26:23.677Z,93.90
2019-05-18T05:28:51.565Z,93.70
2019-05-18T05:31:19.559Z,93.50
2019-05-18T05:33:47.458Z,92.90
2019-05-18T05:36:15.485Z,92.60
2019-05-18T05:38:43.400Z,92.20
2019-05-18T05:41:16.527Z,92.10
2019-05-18T05:43:41.166Z,91.90
2019-05-18T05:46:09.098Z,91.40
2019-05-18T05:48:37.000Z,90.80
2019-05-18T05:51:04.874Z,89.70
2019-05-18T05:53:33.074Z,90.00
2019-05-18T05:56:00.918Z,89.50
2019-05-18T05:58:28.897Z,87.80
2019-05-18T06:00:56.740Z,86.50
2019-05-18T06:03:24.608Z,86.10
2019-05-18T06:05:52.558Z,85.00
2019-05-18T06:08:20.936Z,84.20
2019-05-18T06:10:48.911Z,85.30
2019-05-18T06:13:16.930Z,85.30
2019-05-18T06:15:44.778Z,84.50
2019-05-18T06:18:12.655Z,83.90
2019-05-18T06:20:51.025Z,83.40
2019-05-18T06:23:10.522Z,82.40
2019-05-18T06:25:41.683Z,83.60
2019-05-18T06:28:09.666Z,85.00
2019-05-18T06:30:37.593Z,84.80
2019-05-18T06:33:05.465Z,83.60
2019-05-18T06:35:33.334Z,83.30
2019-05-18T06:38:01.233Z,83.00
2019-05-18T06:40:29.218Z,82.40
2019-05-18T06:42:57.180Z,81.10
2019-05-18T06:45:25.089Z,79.20
2019-05-18T06:47:52.974Z,76.50
2019-05-18T06:50:29.041Z,76.00
2019-05-18T06:52:57.957Z,75.60
2019-05-18T06:55:26.546Z,75.00
2019-05-18T06:57:56.748Z,75.70
2019-05-18T07:00:24.806Z,75.10
2019-05-18T07:02:52.684Z,72.80
2019-05-18T07:05:21.860Z,71.70
2019-05-18T07:07:50.562Z,70.00
2019-05-18T07:10:18.429Z,68.80
2019-05-18T07:12:47.361Z,66.00
2019-05-18T07:15:16.185Z,64.00
2019-05-18T07:17:44.596Z,62.40
2019-05-18T07:20:15.907Z,60.60
2019-05-18T07:22:43.972Z,59.70
2019-05-18T07:25:12.571Z,59.00
2019-05-18T07:27:40.569Z,58.60
2019-05-18T07:30:09.704Z,60.30
2019-05-18T07:32:37.753Z,58.30
2019-05-18T07:35:06.487Z,55.40
2019-05-18T07:37:34.604Z,54.50
2019-05-18T07:40:02.689Z,53.30
2019-05-18T07:42:30.685Z,56.00
2019-05-18T07:44:58.631Z,56.60
2019-05-18T07:47:26.670Z,57.30
2019-05-18T07:49:55.265Z,55.50
2019-05-18T07:52:23.363Z,54.90
2019-05-18T07:54:52.361Z,53.60
2019-05-18T07:57:20.468Z,52.30
2019-05-18T07:59:49.831Z,53.90
2019-05-18T08:02:17.974Z,53.60
2019-05-18T08:04:45.991Z,53.40
2019-05-18T08:07:14.056Z,52.60
2019-05-18T08:09:42.038Z,50.60
2019-05-18T08:12:10.030Z,49.30
2019-05-18T08:14:38.069Z,49.60
2019-05-18T08:17:06.179Z,50.60
2019-05-18T08:19:34.155Z,49.50
2019-05-18T08:22:02.342Z,47.60
2019-05-18T08:24:30.328Z,47.20
2019-05-18T08:27:01.826Z,46.80
2019-05-18T08:29:28.324Z,47.10
2019-05-18T08:31:56.396Z,47.10
2019-05-18T08:34:24.436Z,46.00
2019-05-18T08:36:53.481Z,45.00
2019-05-18T08:39:21.655Z,45.00
2019-05-18T08:41:49.725Z,44.10
2019-05-18T08:44:17.765Z,44.80
2019-05-18T08:46:45.713Z,44.70
2019-05-18T08:49:13.798Z,44.60
2019-05-18T08:51:42.937Z,44.70
2019-05-18T08:54:11.975Z,44.10
2019-05-18T08:56:40.024Z,44.70
2019-05-18T08:59:08.275Z,43.40
2019-05-18T09:01:36.293Z,43.00
2019-05-18T09:04:04.463Z,43.00
2019-05-18T09:06:32.566Z,43.70
2019-05-18T09:09:00.757Z,44.20
2019-05-18T09:11:28.996Z,42.50
2019-05-18T09:13:57.076Z,41.80
2019-05-18T09:16:25.575Z,42.40
2019-05-18T09:18:53.730Z,41.90
2019-05-18T09:21:21.845Z,42.40
2019-05-18T09:23:50.032Z,42.90
2019-05-18T09:26:18.239Z,41.90
2019-05-18T09:28:48.224Z,41.70
2019-05-18T09:31:16.299Z,41.80
2019-05-18T09:33:44.309Z,41.10
2019-05-18T09:36:12.413Z,41.00
2019-05-18T09:38:40.400Z,41.40
2019-05-18T09:41:08.492Z,39.70
2019-05-18T09:43:36.657Z,40.10
2019-05-18T09:46:04.749Z,40.20
2019-05-18T09:48:32.946Z,40.30
2019-05-18T09:51:01.069Z,40.60
2019-05-18T09:53:30.151Z,40.70
2019-05-18T09:55:58.233Z,39.20
2019-05-18T09:58:26.252Z,39.10
2019-05-18T10:00:54.402Z,37.00
2019-05-18T10:03:22.348Z,36.90
2019-05-18T10:05:50.310Z,36.30
2019-05-18T10:08:18.334Z,36.00
2019-05-18T10:10:51.035Z,35.00
2019-05-18T10:13:18.994Z,35.50
2019-05-18T10:15:46.959Z,34.60
2019-05-18T10:18:14.931Z,34.70
2019-05-18T10:20:42.951Z,33.30
2019-05-18T10:23:13.689Z,33.30
2019-05-18T10:25:40.716Z,33.00
2019-05-18T10:28:08.686Z,32.60
2019-05-18T10:30:36.698Z,33.10
2019-05-18T10:33:04.868Z,33.00
2019-05-18T10:35:32.819Z,32.60
2019-05-18T10:38:00.824Z,32.10
2019-05-18T10:40:28.748Z,33.40
2019-05-18T10:42:56.870Z,32.90
2019-05-18T10:45:24.818Z,33.30
2019-05-18T10:47:52.729Z,34.70
2019-05-18T10:50:21.716Z,34.30
2019-05-18T10:52:49.692Z,32.30
2019-05-18T10:55:17.861Z,30.40
2019-05-18T10:57:45.885Z,29.40
2019-05-18T11:00:14.623Z,29.00
2019-05-18T11:02:42.647Z,30.00
2019-05-18T11:05:11.250Z,29.90
2019-05-18T11:07:39.145Z,29.30
2019-05-18T11:10:08.126Z,28.90
2019-05-18T11:12:36.108Z,29.80
2019-05-18T11:15:04.607Z,29.60
2019-05-18T11:17:32.793Z,30.30
2019-05-18T11:20:00.913Z,29.90
2019-05-18T11:22:28.930Z,29.30
2019-05-18T11:24:56.948Z,30.10
2019-05-18T11:27:24.956Z,29.40
2019-05-18T11:29:53.508Z,29.60
2019-05-18T11:32:21.492Z,29.20
2019-05-18T11:34:49.479Z,30.00
2019-05-18T11:37:17.538Z,29.10
2019-05-18T11:39:45.529Z,28.80
2019-05-18T11:42:16.091Z,31.10
2019-05-18T11:44:44.280Z,29.70
2019-05-18T11:47:12.316Z,29.50
2019-05-18T11:49:40.385Z,28.50
2019-05-18T11:52:08.975Z,28.30
2019-05-18T11:54:37.661Z,28.20
2019-05-18T11:57:05.930Z,29.10
2019-05-18T11:59:34.793Z,28.40
2019-05-18T12:02:04.562Z,28.00
2019-05-18T12:04:32.717Z,28.20
2019-05-18T12:07:18.080Z,29.20
2019-05-18T12:09:46.075Z,28.10
2019-05-18T12:12:14.121Z,28.50
2019-05-18T12:14:42.147Z,29.40
2019-05-18T12:17:10.150Z,28.70
2019-05-18T12:19:38.105Z,28.70
2019-05-18T12:22:06.376Z,28.50
2019-05-18T12:24:34.482Z,28.20
2019-05-18T12:27:02.531Z,28.30
2019-05-18T12:29:30.553Z,28.30
2019-05-18T12:31:58.820Z,26.80
2019-05-18T12:34:27.029Z,29.00
2019-05-18T12:36:55.155Z,28.40
2019-05-18T12:39:23.244Z,29.30
2019-05-18T12:41:51.252Z,28.30
2019-05-18T12:44:19.241Z,29.20
2019-05-18T12:46:47.548Z,28.30
2019-05-18T12:49:15.790Z,28.00
2019-05-18T12:51:43.795Z,27.40
2019-05-18T12:54:11.752Z,27.10
2019-05-18T12:56:40.140Z,26.70
2019-05-18T12:59:08.326Z,27.00
2019-05-18T13:01:36.374Z,27.00
2019-05-18T13:04:04.371Z,28.00
2019-05-18T13:06:32.383Z,26.80
2019-05-18T13:09:00.432Z,27.20
2019-05-18T13:11:28.387Z,27.40
2019-05-18T13:13:56.374Z,27.90
2019-05-18T13:16:24.356Z,28.20
2019-05-18T13:18:52.265Z,26.60
2019-05-18T13:21:20.212Z,26.40
2019-05-18T13:23:48.188Z,27.30
2019-05-18T13:26:16.148Z,27.20
2019-05-18T13:28:44.525Z,26.20
2019-05-18T13:31:12.526Z,26.00
2019-05-18T13:33:40.598Z,25.40
2019-05-18T13:36:08.727Z,25.40
2019-05-18T13:38:36.845Z,24.30
2019-05-18T13:41:04.870Z,24.30
2019-05-18T13:43:32.910Z,24.20
2019-05-18T13:46:00.913Z,23.10
2019-05-18T13:48:28.919Z,22.20
2019-05-18T13:50:57.023Z,22.70
2019-05-18T13:53:25.185Z,22.10
2019-05-18T13:55:53.266Z,21.80
2019-05-18T13:58:21.333Z,21.80
2019-05-18T14:00:49.566Z,22.00
2019-05-18T14:03:18.730Z,20.80
2019-05-18T14:05:46.837Z,21.50
2019-05-18T14:08:15.958Z,21.30
2019-05-18T14:10:44.234Z,22.20
2019-05-18T14:13:12.504Z,21.90
2019-05-18T14:15:40.551Z,23.40
2019-05-18T14:18:08.635Z,22.50
2019-05-18T14:20:36.883Z,21.90
2019-05-18T14:23:04.975Z,21.30
2019-05-18T14:25:32.925Z,21.70
2019-05-18T14:28:01.002Z,22.10
2019-05-18T14:30:29.134Z,22.20
2019-05-18T14:32:57.970Z,24.00
2019-05-18T14:35:26.455Z,24.20
2019-05-18T14:37:54.752Z,22.70
2019-05-18T14:40:23.929Z,22.70
2019-05-18T14:42:52.067Z,22.10
2019-05-18T14:45:20.369Z,21.20
2019-05-18T14:47:48.535Z,20.50
2019-05-18T14:50:19.098Z,20.60
2019-05-18T14:52:47.128Z,20.40
2019-05-18T14:55:16.845Z,19.70
2019-05-18T14:57:45.104Z,19.20
2019-05-18T15:00:14.005Z,19.90
2019-05-18T15:02:42.388Z,21.60
2019-05-18T15:05:12.803Z,21.60
2019-05-18T15:07:40.844Z,22.70
2019-05-18T15:10:09.595Z,24.30
2019-05-18T15:12:38.097Z,25.70
2019-05-18T15:15:10.682Z,26.60
2019-05-18T15:17:39.836Z,26.50
2019-05-18T15:20:08.988Z,26.60
2019-05-18T15:22:37.031Z,25.70
2019-05-18T15:25:05.971Z,26.40
2019-05-18T15:27:35.035Z,27.60
2019-05-18T15:30:04.171Z,29.00
2019-05-18T15:32:33.194Z,29.30
2019-05-18T15:35:01.838Z,29.90
2019-05-18T15:37:30.461Z,30.80
2019-05-18T15:39:59.625Z,31.40
2019-05-18T15:42:27.717Z,31.50
2019-05-18T15:44:55.873Z,32.10
2019-05-18T15:47:24.188Z,32.40
2019-05-18T15:49:52.381Z,32.90
2019-05-18T15:52:20.501Z,33.10
2019-05-18T15:54:48.588Z,33.00
2019-05-18T15:57:16.519Z,32.00
2019-05-18T15:59:45.101Z,31.80
2019-05-18T16:02:13.646Z,32.10
2019-05-18T16:04:42.397Z,32.40
2019-05-18T16:07:10.621Z,32.20
2019-05-18T16:09:40.307Z,32.50
2019-05-18T16:12:08.545Z,32.00
2019-05-18T16:14:36.715Z,32.30
2019-05-18T16:17:05.983Z,32.60
2019-05-18T16:19:34.096Z,32.70
2019-05-18T16:22:03.077Z,32.30
2019-05-18T16:24:31.381Z,32.30
2019-05-18T16:27:01.635Z,32.70
2019-05-18T16:29:30.344Z,32.00
2019-05-18T16:31:58.626Z,31.50
2019-05-18T16:34:26.820Z,31.60
2019-05-18T16:36:55.563Z,31.10
2019-05-18T16:39:23.710Z,31.40
2019-05-18T16:41:52.759Z,31.40
2019-05-18T16:44:21.717Z,32.00
2019-05-18T16:46:49.984Z,32.10
2019-05-18T16:49:18.551Z,30.60
2019-05-18T16:51:46.995Z,31.60
2019-05-18T16:54:15.458Z,31.90
2019-05-18T16:56:44.459Z,32.50
2019-05-18T16:59:12.513Z,34.60
2019-05-18T17:01:40.753Z,34.60
2019-05-18T17:04:09.673Z,35.80
2019-05-18T17:06:39.902Z,36.80
2019-05-18T17:09:09.401Z,37.20
2019-05-18T17:11:37.950Z,37.60
2019-05-18T17:14:06.394Z,37.40
2019-05-18T17:16:35.338Z,36.70
2019-05-18T17:19:04.133Z,34.40
2019-05-18T17:21:33.403Z,34.20
2019-05-18T17:24:01.821Z,32.10
2019-05-18T17:26:30.061Z,33.70
2019-05-18T17:28:58.946Z,34.30
2019-05-18T17:31:29.820Z,34.20
2019-05-18T17:34:00.585Z,33.40
2019-05-18T17:36:28.619Z,32.70
2019-05-18T17:38:56.932Z,32.90
2019-05-18T17:41:25.516Z,34.60
2019-05-18T17:43:53.522Z,34.10
2019-05-18T17:46:21.764Z,33.20
2019-05-18T17:48:50.185Z,33.20
2019-05-18T17:51:21.308Z,32.00
2019-05-18T17:53:49.468Z,31.70
2019-05-18T17:56:18.517Z,31.70
2019-05-18T17:58:46.694Z,33.10
2019-05-18T18:01:15.728Z,33.90
2019-05-18T18:03:43.796Z,34.60
2019-05-18T18:06:12.552Z,34.40
2019-05-18T18:17:48.433Z,35.50
2019-05-18T18:20:18.064Z,36.50
2019-05-18T18:28:42.760Z,39.30
2019-05-18T18:31:11.049Z,38.00
2019-05-18T18:33:39.199Z,38.40
2019-05-18T18:36:07.235Z,39.00
2019-05-18T18:38:35.399Z,40.70
2019-05-18T18:41:03.398Z,42.90
2019-05-18T18:43:31.555Z,44.90
2019-05-18T18:45:59.574Z,46.50
2019-05-18T18:48:27.801Z,47.00
2019-05-18T18:50:56.137Z,47.30
2019-05-18T18:53:26.242Z,48.10
2019-05-18T18:55:54.316Z,48.30
2019-05-18T18:58:22.520Z,48.20
2019-05-18T19:00:50.493Z,49.30
2019-05-18T19:03:19.981Z,49.50
2019-05-18T19:05:48.040Z,51.30
2019-05-18T19:08:16.063Z,51.90
2019-05-18T19:10:44.119Z,53.30
2019-05-18T19:13:12.222Z,56.20
2019-05-18T19:15:40.239Z,58.30
2019-05-18T19:18:09.352Z,59.30
2019-05-18T19:20:37.317Z,60.40
2019-05-18T19:23:05.368Z,60.60
2019-05-18T19:25:33.346Z,61.10
2019-05-18T19:28:01.454Z,61.40
2019-05-18T19:30:29.570Z,63.30
2019-05-18T19:32:57.616Z,63.20
2019-05-18T19:35:25.611Z,64.70
2019-05-18T19:37:53.929Z,66.40
2019-05-18T19:40:21.903Z,68.00
2019-05-18T19:42:50.407Z,71.70
2019-05-18T19:45:20.113Z,73.90
2019-05-18T19:47:49.726Z,76.00
2019-05-18T19:50:17.827Z,77.90
2019-05-18T19:52:46.449Z,79.30
2019-05-18T19:55:14.557Z,81.70
2019-05-18T19:57:42.524Z,83.20
2019-05-18T20:00:11.253Z,84.70
2019-05-18T20:02:39.410Z,86.40
2019-05-18T20:05:09.183Z,88.90
2019-05-18T20:07:37.778Z,90.00
2019-05-18T20:10:09.528Z,90.20
2019-05-18T20:12:38.875Z,90.10
2019-05-18T20:15:09.580Z,90.20
2019-05-18T20:17:38.023Z,90.90
2019-05-18T20:20:06.586Z,91.50
2019-05-18T20:22:34.566Z,91.30
2019-05-18T20:25:02.960Z,91.60
2019-05-18T20:27:30.930Z,92.10
2019-05-18T20:29:59.042Z,93.40
2019-05-18T20:32:27.112Z,94.40
2019-05-18T20:34:55.285Z,95.00
2019-05-18T20:37:23.343Z,96.20
2019-05-18T20:39:51.818Z,97.30
2019-05-18T20:42:19.843Z,96.60
2019-05-18T20:44:47.925Z,96.80
2019-05-18T20:47:15.983Z,97.20
2019-05-18T20:49:44.210Z,97.40
2019-05-18T20:52:15.460Z,97.70
2019-05-18T20:54:43.504Z,97.30
2019-05-18T20:57:11.480Z,97.10
2019-05-18T20:59:39.668Z,97.20
2019-05-18T21:02:12.654Z,97.30
2019-05-18T21:04:40.801Z,97.40
2019-05-18T21:07:08.890Z,97.20
2019-05-18T21:09:37.131Z,97.00
2019-05-18T21:12:05.211Z,97.00
2019-05-18T21:14:33.263Z,96.90
2019-05-18T21:17:01.427Z,96.70
2019-05-18T21:19:29.841Z,96.60
2019-05-18T21:21:57.854Z,96.90
2019-05-18T21:24:25.945Z,96.60
2019-05-18T21:26:53.977Z,96.20
2019-05-18T21:29:22.031Z,96.30
2019-05-18T21:31:50.331Z,95.90
2019-05-18T21:34:18.978Z,95.90
2019-05-18T21:36:47.429Z,95.70
2019-05-18T21:39:15.514Z,95.50
2019-05-18T21:41:43.598Z,95.60
2019-05-18T21:44:16.871Z,96.60
2019-05-18T21:46:44.935Z,97.50
2019-05-18T21:49:13.022Z,97.40
2019-05-18T21:51:42.757Z,97.30
2019-05-18T21:54:10.989Z,97.80
2019-05-18T21:56:39.448Z,97.90
2019-05-18T21:59:11.644Z,98.40
2019-05-18T22:01:39.593Z,98.60
2019-05-18T22:04:08.374Z,98.20
2019-05-18T22:06:37.346Z,98.60
2019-05-18T22:09:06.718Z,98.90
2019-05-18T22:11:35.095Z,99.10
2019-05-18T22:14:05.084Z,99.20
2019-05-18T22:16:33.101Z,99.20
2019-05-18T22:19:03.249Z,99.40
2019-05-18T22:21:32.047Z,99.40
2019-05-18T22:24:00.460Z,99.30
2019-05-18T22:26:29.016Z,99.30
2019-05-18T22:28:58.094Z,99.20
2019-05-18T22:31:35.262Z,99.20
2019-05-18T22:34:04.243Z,99.10
2019-05-18T22:36:34.428Z,99.30
2019-05-18T22:39:05.656Z,99.10
2019-05-18T22:41:34.353Z,98.90
2019-05-18T22:44:02.666Z,98.80
2019-05-18T22:46:30.798Z,99.10
2019-05-18T22:48:58.908Z,99.00
2019-05-18T22:51:26.969Z,98.70
2019-05-18T22:53:55.920Z,98.40
2019-05-18T22:56:24.238Z,98.30
2019-05-18T22:58:52.641Z,98.10
2019-05-18T23:01:22.803Z,98.10
2019-05-18T23:03:51.911Z,98.10
2019-05-18T23:06:20.832Z,98.30
2019-05-18T23:08:48.843Z,98.60
2019-05-18T23:11:17.032Z,98.80
2019-05-18T23:13:45.638Z,98.60
2019-05-18T23:16:13.760Z,98.40
2019-05-18T23:18:56.479Z,98.50
2019-05-18T23:21:15.541Z,99.10
2019-05-18T23:23:43.798Z,99.40
2019-05-18T23:26:13.916Z,99.70
2019-05-18T23:28:44.847Z,99.90
2019-05-18T23:31:14.080Z,99.90
2019-05-18T23:33:42.285Z,99.90
2019-05-18T23:36:11.368Z,99.90
2019-05-18T23:38:39.446Z,99.90
2019-05-18T23:41:07.390Z,99.90
2019-05-18T23:43:35.358Z,99.90
2019-05-18T23:46:03.385Z,99.90
2019-05-18T23:48:31.377Z,99.90
2019-05-18T23:50:59.555Z,99.90
2019-05-18T23:53:27.456Z,99.90
2019-05-18T23:55:55.394Z,99.90
2019-05-18T23:58:23.310Z,99.90
